RYR90TC LOWW-EDDK
Flight info
| Callsign | RYR90TC |
|---|---|
| Flight time | 1h 19m |
| Altitude | 36000 |
| Route | BUWUT DCT DITIS DCT RAPET T843 DEMAB T842 EBANA T841 ERNEP ERNEP2V |
| Aircraft | A320/M-SDE3FGHIRWY/LB1 |
Departure
| Time | 2026-04-25 07:56 |
|---|---|
| Airport | Vienna International Airport (LOWW) |
Arrival
| Time | 2026-04-25 09:16 |
|---|---|
| Airport | Cologne Bonn Airport (EDDK) |
| Time | Latitude | Longitude | Altitude | Speed | Heading |
|---|---|---|---|---|---|
| 2026-04-25 07:27 | 48.12095 | 16.55161 | 602 ft | 0 kts | 299° |
| 2026-04-25 07:46 | 48.12094 | 16.55164 | 602 ft | 3 kts | 298° |
| 2026-04-25 07:46 | 48.12085 | 16.55200 | 602 ft | 4 kts | 268° |
| 2026-04-25 07:46 | 48.12092 | 16.55235 | 601 ft | 4 kts | 224° |
| 2026-04-25 07:47 | 48.12108 | 16.55251 | 600 ft | 0 kts | 205° |
| 2026-04-25 07:51 | 48.12069 | 16.55224 | 602 ft | 11 kts | 205° |
| 2026-04-25 07:51 | 48.12016 | 16.55186 | 604 ft | 6 kts | 205° |
| 2026-04-25 07:51 | 48.11983 | 16.55180 | 609 ft | 7 kts | 172° |
| 2026-04-25 07:51 | 48.11914 | 16.55188 | 618 ft | 9 kts | 185° |
| 2026-04-25 07:52 | 48.11875 | 16.55232 | 614 ft | 12 kts | 114° |
| 2026-04-25 07:52 | 48.11815 | 16.55418 | 621 ft | 28 kts | 116° |
| 2026-04-25 07:52 | 48.11718 | 16.55715 | 618 ft | 33 kts | 115° |
| 2026-04-25 07:52 | 48.11620 | 16.56022 | 617 ft | 33 kts | 116° |
| 2026-04-25 07:53 | 48.11520 | 16.56332 | 614 ft | 34 kts | 115° |
| 2026-04-25 07:53 | 48.11415 | 16.56658 | 620 ft | 34 kts | 116° |
| 2026-04-25 07:53 | 48.11314 | 16.56954 | 627 ft | 30 kts | 115° |
| 2026-04-25 07:53 | 48.11264 | 16.57109 | 624 ft | 0 kts | 115° |
| 2026-04-25 07:54 | 48.11263 | 16.57111 | 623 ft | 5 kts | 116° |
| 2026-04-25 07:54 | 48.11249 | 16.57156 | 628 ft | 12 kts | 116° |
| 2026-04-25 07:54 | 48.11184 | 16.57234 | 621 ft | 11 kts | 189° |
| 2026-04-25 07:55 | 48.11125 | 16.57193 | 629 ft | 8 kts | 208° |
| 2026-04-25 07:55 | 48.11075 | 16.57141 | 629 ft | 12 kts | 228° |
| 2026-04-25 07:55 | 48.11073 | 16.57041 | 631 ft | 9 kts | 295° |
| 2026-04-25 07:55 | 48.11141 | 16.56842 | 625 ft | 51 kts | 296° |
| 2026-04-25 07:56 | 48.11396 | 16.56056 | 620 ft | 114 kts | 296° |
| 2026-04-25 07:56 | 48.11814 | 16.54753 | 630 ft | 159 kts | 297° |
| 2026-04-25 07:56 | 48.12261 | 16.53281 | 1331 ft | 151 kts | 296° |
| 2026-04-25 07:56 | 48.12415 | 16.51721 | 1984 ft | 160 kts | 266° |
| 2026-04-25 07:57 | 48.12204 | 16.49961 | 2325 ft | 183 kts | 261° |
| 2026-04-25 07:57 | 48.11915 | 16.48015 | 2663 ft | 204 kts | 262° |
| 2026-04-25 07:57 | 48.11865 | 16.45779 | 3016 ft | 226 kts | 276° |
| 2026-04-25 07:57 | 48.12032 | 16.43343 | 3644 ft | 239 kts | 279° |
| 2026-04-25 07:58 | 48.12255 | 16.40900 | 4573 ft | 240 kts | 279° |
| 2026-04-25 07:58 | 48.12505 | 16.38394 | 5534 ft | 242 kts | 281° |
| 2026-04-25 07:58 | 48.12765 | 16.35887 | 6423 ft | 246 kts | 281° |
| 2026-04-25 07:58 | 48.13028 | 16.33366 | 7192 ft | 251 kts | 282° |
| 2026-04-25 07:59 | 48.13304 | 16.30751 | 7976 ft | 257 kts | 282° |
| 2026-04-25 07:59 | 48.13587 | 16.28069 | 8731 ft | 263 kts | 282° |
| 2026-04-25 07:59 | 48.13877 | 16.25317 | 9501 ft | 270 kts | 283° |
| 2026-04-25 07:59 | 48.14434 | 16.22629 | 10202 ft | 272 kts | 299° |
| 2026-04-25 08:00 | 48.15536 | 16.20297 | 10796 ft | 281 kts | 315° |
| 2026-04-25 08:00 | 48.17152 | 16.18532 | 11017 ft | 304 kts | 332° |
| 2026-04-25 08:00 | 48.19113 | 16.17096 | 11395 ft | 320 kts | 333° |
| 2026-04-25 08:00 | 48.21145 | 16.15614 | 12057 ft | 326 kts | 333° |
| 2026-04-25 08:01 | 48.23201 | 16.14107 | 12771 ft | 331 kts | 333° |
| 2026-04-25 08:01 | 48.25277 | 16.12577 | 13473 ft | 335 kts | 333° |
| 2026-04-25 08:01 | 48.27383 | 16.11015 | 14138 ft | 339 kts | 332° |
| 2026-04-25 08:01 | 48.29490 | 16.09450 | 14765 ft | 342 kts | 332° |
| 2026-04-25 08:02 | 48.31635 | 16.07856 | 15398 ft | 346 kts | 332° |
| 2026-04-25 08:02 | 48.33799 | 16.06250 | 16033 ft | 349 kts | 332° |
| 2026-04-25 08:02 | 48.35985 | 16.04626 | 16659 ft | 351 kts | 332° |
| 2026-04-25 08:02 | 48.38190 | 16.02986 | 17280 ft | 355 kts | 331° |
| 2026-04-25 08:03 | 48.40413 | 16.01326 | 17912 ft | 358 kts | 331° |
| 2026-04-25 08:03 | 48.42653 | 15.99651 | 18547 ft | 359 kts | 331° |
| 2026-04-25 08:03 | 48.44899 | 15.97971 | 19097 ft | 362 kts | 331° |
| 2026-04-25 08:03 | 48.47167 | 15.96272 | 19638 ft | 365 kts | 330° |
| 2026-04-25 08:04 | 48.49445 | 15.94563 | 20180 ft | 367 kts | 330° |
| 2026-04-25 08:04 | 48.51742 | 15.92838 | 20722 ft | 370 kts | 330° |
| 2026-04-25 08:04 | 48.54026 | 15.91117 | 21259 ft | 372 kts | 329° |
| 2026-04-25 08:04 | 48.56196 | 15.88994 | 21787 ft | 372 kts | 319° |
| 2026-04-25 08:05 | 48.58062 | 15.86279 | 22304 ft | 373 kts | 309° |
| 2026-04-25 08:05 | 48.59596 | 15.83110 | 22813 ft | 375 kts | 303° |
| 2026-04-25 08:05 | 48.61069 | 15.79835 | 23325 ft | 377 kts | 303° |
| 2026-04-25 08:05 | 48.62554 | 15.76537 | 23783 ft | 380 kts | 303° |
| 2026-04-25 08:06 | 48.64028 | 15.73269 | 24189 ft | 382 kts | 303° |
| 2026-04-25 08:06 | 48.65532 | 15.69934 | 24605 ft | 384 kts | 303° |
| 2026-04-25 08:06 | 48.67047 | 15.66564 | 25007 ft | 386 kts | 303° |
| 2026-04-25 08:06 | 48.68557 | 15.63202 | 25459 ft | 386 kts | 303° |
| 2026-04-25 08:07 | 48.70052 | 15.59833 | 25892 ft | 386 kts | 301° |
| 2026-04-25 08:07 | 48.71377 | 15.56291 | 26276 ft | 387 kts | 298° |
| 2026-04-25 08:07 | 48.72668 | 15.52766 | 26659 ft | 388 kts | 298° |
| 2026-04-25 08:07 | 48.73988 | 15.49170 | 27030 ft | 390 kts | 298° |
| 2026-04-25 08:08 | 48.75313 | 15.45555 | 27381 ft | 392 kts | 298° |
| 2026-04-25 08:08 | 48.76642 | 15.41924 | 27736 ft | 394 kts | 297° |
| 2026-04-25 08:08 | 48.77973 | 15.38281 | 28071 ft | 396 kts | 297° |
| 2026-04-25 08:08 | 48.79290 | 15.34672 | 28402 ft | 397 kts | 297° |
| 2026-04-25 08:09 | 48.80669 | 15.31022 | 28735 ft | 400 kts | 301° |
| 2026-04-25 08:09 | 48.82281 | 15.27562 | 29053 ft | 402 kts | 303° |
| 2026-04-25 08:09 | 48.83921 | 15.24102 | 29364 ft | 404 kts | 303° |
| 2026-04-25 08:09 | 48.85566 | 15.20628 | 29667 ft | 405 kts | 303° |
| 2026-04-25 08:10 | 48.87218 | 15.17131 | 29952 ft | 407 kts | 303° |
| 2026-04-25 08:10 | 48.88871 | 15.13631 | 30216 ft | 409 kts | 303° |
| 2026-04-25 08:10 | 48.90534 | 15.10104 | 30449 ft | 410 kts | 303° |
| 2026-04-25 08:10 | 48.92200 | 15.06636 | 30672 ft | 412 kts | 303° |
| 2026-04-25 08:11 | 48.93914 | 15.03133 | 30865 ft | 414 kts | 304° |
| 2026-04-25 08:11 | 48.95654 | 14.99603 | 31103 ft | 414 kts | 304° |
| 2026-04-25 08:11 | 48.97389 | 14.96091 | 31413 ft | 413 kts | 304° |
| 2026-04-25 08:11 | 48.99115 | 14.92582 | 31721 ft | 412 kts | 304° |
| 2026-04-25 08:12 | 49.00805 | 14.89127 | 32067 ft | 411 kts | 303° |
| 2026-04-25 08:12 | 49.02498 | 14.85647 | 32456 ft | 408 kts | 303° |
| 2026-04-25 08:12 | 49.04185 | 14.82169 | 32777 ft | 406 kts | 303° |
| 2026-04-25 08:12 | 49.05859 | 14.78708 | 33076 ft | 405 kts | 303° |
| 2026-04-25 08:13 | 49.07525 | 14.75251 | 33391 ft | 404 kts | 303° |
| 2026-04-25 08:13 | 49.09187 | 14.71796 | 33693 ft | 403 kts | 303° |
| 2026-04-25 08:13 | 49.10285 | 14.69511 | 33855 ft | 403 kts | 303° |
| 2026-04-25 08:14 | 49.14154 | 14.61459 | 34394 ft | 404 kts | 303° |
| 2026-04-25 08:14 | 49.15261 | 14.59158 | 34551 ft | 404 kts | 303° |
| 2026-04-25 08:14 | 49.16923 | 14.55697 | 34784 ft | 404 kts | 303° |
| 2026-04-25 08:14 | 49.18586 | 14.52236 | 35014 ft | 403 kts | 303° |
| 2026-04-25 08:15 | 49.20247 | 14.48776 | 35240 ft | 403 kts | 303° |
| 2026-04-25 08:15 | 49.21903 | 14.45323 | 35468 ft | 402 kts | 303° |
| 2026-04-25 08:15 | 49.23561 | 14.41854 | 35690 ft | 402 kts | 303° |
| 2026-04-25 08:15 | 49.25214 | 14.38390 | 35890 ft | 402 kts | 303° |
| 2026-04-25 08:16 | 49.26862 | 14.34926 | 36050 ft | 402 kts | 303° |
| 2026-04-25 08:16 | 49.30135 | 14.28030 | 36070 ft | 402 kts | 303° |
| 2026-04-25 08:17 | 49.33427 | 14.21095 | 36061 ft | 401 kts | 303° |
| 2026-04-25 08:17 | 49.36689 | 14.14205 | 36068 ft | 400 kts | 303° |
| 2026-04-25 08:18 | 49.39961 | 14.07257 | 36069 ft | 400 kts | 303° |
| 2026-04-25 08:18 | 49.43204 | 14.00356 | 36065 ft | 400 kts | 303° |
| 2026-04-25 08:19 | 49.46462 | 13.93427 | 36049 ft | 400 kts | 303° |
| 2026-04-25 08:19 | 49.49727 | 13.86454 | 36048 ft | 400 kts | 302° |
| 2026-04-25 08:20 | 49.52961 | 13.79518 | 36049 ft | 401 kts | 302° |
| 2026-04-25 08:20 | 49.56226 | 13.72511 | 36065 ft | 401 kts | 302° |
| 2026-04-25 08:21 | 49.59454 | 13.65572 | 36065 ft | 401 kts | 302° |
| 2026-04-25 08:21 | 49.62706 | 13.58562 | 36096 ft | 401 kts | 302° |
| 2026-04-25 08:22 | 49.65943 | 13.51555 | 36094 ft | 401 kts | 302° |
| 2026-04-25 08:22 | 49.69173 | 13.44537 | 36097 ft | 401 kts | 302° |
| 2026-04-25 08:23 | 49.72403 | 13.37510 | 36097 ft | 401 kts | 302° |
| 2026-04-25 08:23 | 49.75608 | 13.30525 | 36097 ft | 401 kts | 302° |
| 2026-04-25 08:24 | 49.78823 | 13.23473 | 36091 ft | 401 kts | 302° |
| 2026-04-25 08:24 | 49.82034 | 13.16419 | 36083 ft | 401 kts | 302° |
| 2026-04-25 08:25 | 49.85251 | 13.09356 | 36048 ft | 401 kts | 302° |
| 2026-04-25 08:25 | 49.88447 | 13.02316 | 36042 ft | 401 kts | 302° |
| 2026-04-25 08:26 | 49.91651 | 12.95229 | 36045 ft | 401 kts | 302° |
| 2026-04-25 08:26 | 49.94856 | 12.88129 | 36078 ft | 400 kts | 302° |
| 2026-04-25 08:27 | 49.98025 | 12.81086 | 36078 ft | 400 kts | 302° |
| 2026-04-25 08:27 | 50.01216 | 12.73983 | 36071 ft | 400 kts | 302° |
| 2026-04-25 08:28 | 50.04398 | 12.66872 | 36072 ft | 400 kts | 302° |
| 2026-04-25 08:28 | 50.07557 | 12.59794 | 36069 ft | 400 kts | 302° |
| 2026-04-25 08:29 | 50.10734 | 12.52657 | 36070 ft | 400 kts | 302° |
| 2026-04-25 08:29 | 50.13904 | 12.45522 | 36068 ft | 400 kts | 302° |
| 2026-04-25 08:30 | 50.17050 | 12.38401 | 36059 ft | 400 kts | 302° |
| 2026-04-25 08:30 | 50.19533 | 12.30715 | 36064 ft | 396 kts | 285° |
| 2026-04-25 08:31 | 50.20872 | 12.22357 | 36064 ft | 397 kts | 283° |
| 2026-04-25 08:31 | 50.22188 | 12.13967 | 36086 ft | 397 kts | 283° |
| 2026-04-25 08:32 | 50.23494 | 12.05628 | 36092 ft | 397 kts | 283° |
| 2026-04-25 08:32 | 50.24802 | 11.97230 | 36095 ft | 397 kts | 283° |
| 2026-04-25 08:33 | 50.26116 | 11.88817 | 36096 ft | 397 kts | 283° |
| 2026-04-25 08:33 | 50.27417 | 11.80451 | 36098 ft | 398 kts | 283° |
| 2026-04-25 08:34 | 50.28714 | 11.72022 | 36127 ft | 397 kts | 283° |
| 2026-04-25 08:34 | 50.29998 | 11.63613 | 36123 ft | 397 kts | 283° |
| 2026-04-25 08:35 | 50.31263 | 11.55278 | 36115 ft | 396 kts | 283° |
| 2026-04-25 08:35 | 50.32518 | 11.46875 | 36107 ft | 396 kts | 282° |
| 2026-04-25 08:35 | 50.33139 | 11.42678 | 35837 ft | 394 kts | 282° |
| 2026-04-25 08:36 | 50.33756 | 11.38491 | 35126 ft | 395 kts | 282° |
| 2026-04-25 08:36 | 50.34373 | 11.34297 | 34413 ft | 395 kts | 282° |
| 2026-04-25 08:36 | 50.34990 | 11.30091 | 33646 ft | 396 kts | 282° |
| 2026-04-25 08:36 | 50.35601 | 11.25936 | 32858 ft | 396 kts | 282° |
| 2026-04-25 08:37 | 50.36217 | 11.21745 | 32297 ft | 392 kts | 282° |
| 2026-04-25 08:37 | 50.36827 | 11.17602 | 32074 ft | 390 kts | 282° |
| 2026-04-25 08:37 | 50.37435 | 11.13446 | 32102 ft | 391 kts | 281° |
| 2026-04-25 08:38 | 50.38642 | 11.05121 | 32102 ft | 392 kts | 281° |
| 2026-04-25 08:38 | 50.39842 | 10.96798 | 32104 ft | 392 kts | 281° |
| 2026-04-25 08:39 | 50.41037 | 10.88493 | 32115 ft | 392 kts | 281° |
| 2026-04-25 08:39 | 50.42228 | 10.80146 | 32111 ft | 392 kts | 281° |
| 2026-04-25 08:40 | 50.43416 | 10.71793 | 32114 ft | 392 kts | 281° |
| 2026-04-25 08:40 | 50.44608 | 10.63473 | 32117 ft | 393 kts | 281° |
| 2026-04-25 08:41 | 50.45820 | 10.55099 | 32123 ft | 393 kts | 281° |
| 2026-04-25 08:41 | 50.47025 | 10.46705 | 32123 ft | 393 kts | 281° |
| 2026-04-25 08:42 | 50.48202 | 10.38363 | 32125 ft | 393 kts | 281° |
| 2026-04-25 08:42 | 50.49380 | 10.29941 | 32125 ft | 393 kts | 281° |
| 2026-04-25 08:43 | 50.50547 | 10.21574 | 32127 ft | 393 kts | 281° |
| 2026-04-25 08:43 | 50.51703 | 10.13167 | 32135 ft | 394 kts | 281° |
| 2026-04-25 08:44 | 50.53053 | 10.04865 | 32143 ft | 395 kts | 290° |
| 2026-04-25 08:44 | 50.55920 | 9.97463 | 32143 ft | 402 kts | 308° |
| 2026-04-25 08:45 | 50.60323 | 9.91890 | 32132 ft | 414 kts | 326° |
| 2026-04-25 08:45 | 50.65700 | 9.88323 | 32150 ft | 419 kts | 333° |
| 2026-04-25 08:46 | 50.71086 | 9.84944 | 32138 ft | 419 kts | 333° |
| 2026-04-25 08:46 | 50.76509 | 9.81519 | 32148 ft | 419 kts | 333° |
| 2026-04-25 08:47 | 50.81927 | 9.78087 | 32141 ft | 419 kts | 333° |
| 2026-04-25 08:47 | 50.87311 | 9.74675 | 32147 ft | 419 kts | 333° |
| 2026-04-25 08:48 | 50.92276 | 9.70121 | 31922 ft | 405 kts | 315° |
| 2026-04-25 08:48 | 50.94239 | 9.66984 | 31345 ft | 396 kts | 305° |
| 2026-04-25 08:48 | 50.95779 | 9.63416 | 30769 ft | 389 kts | 295° |
| 2026-04-25 08:48 | 50.96892 | 9.59592 | 30209 ft | 382 kts | 287° |
| 2026-04-25 08:49 | 50.97595 | 9.55554 | 29576 ft | 376 kts | 279° |
| 2026-04-25 08:49 | 50.98094 | 9.51494 | 28949 ft | 374 kts | 279° |
| 2026-04-25 08:49 | 50.98594 | 9.47451 | 28346 ft | 371 kts | 279° |
| 2026-04-25 08:49 | 50.99087 | 9.43453 | 27703 ft | 370 kts | 281° |
| 2026-04-25 08:50 | 50.99579 | 9.39445 | 27087 ft | 369 kts | 281° |
| 2026-04-25 08:50 | 51.00065 | 9.35436 | 26535 ft | 368 kts | 281° |
| 2026-04-25 08:50 | 51.00542 | 9.31463 | 25995 ft | 365 kts | 281° |
| 2026-04-25 08:50 | 51.01015 | 9.27517 | 25481 ft | 363 kts | 281° |
| 2026-04-25 08:51 | 51.01485 | 9.23576 | 24973 ft | 361 kts | 281° |
| 2026-04-25 08:51 | 51.01943 | 9.19713 | 24486 ft | 359 kts | 281° |
| 2026-04-25 08:51 | 51.02402 | 9.15829 | 24005 ft | 357 kts | 281° |
| 2026-04-25 08:51 | 51.02861 | 9.11964 | 23482 ft | 355 kts | 281° |
| 2026-04-25 08:52 | 51.03316 | 9.08115 | 22932 ft | 353 kts | 281° |
| 2026-04-25 08:52 | 51.03766 | 9.04290 | 22401 ft | 351 kts | 281° |
| 2026-04-25 08:52 | 51.04215 | 9.00483 | 21884 ft | 349 kts | 281° |
| 2026-04-25 08:52 | 51.04475 | 8.96702 | 21395 ft | 348 kts | 273° |
| 2026-04-25 08:53 | 51.04378 | 8.92849 | 20899 ft | 348 kts | 265° |
| 2026-04-25 08:53 | 51.03983 | 8.89045 | 20406 ft | 347 kts | 262° |
| 2026-04-25 08:53 | 51.03565 | 8.85356 | 20164 ft | 347 kts | 262° |
| 2026-04-25 08:53 | 51.03145 | 8.81618 | 20150 ft | 348 kts | 262° |
| 2026-04-25 08:54 | 51.02718 | 8.77829 | 20151 ft | 348 kts | 262° |
| 2026-04-25 08:54 | 51.02291 | 8.74035 | 20153 ft | 349 kts | 262° |
| 2026-04-25 08:54 | 51.01861 | 8.70253 | 19988 ft | 346 kts | 262° |
| 2026-04-25 08:54 | 51.01436 | 8.66506 | 19518 ft | 344 kts | 262° |
| 2026-04-25 08:55 | 51.01024 | 8.62776 | 19062 ft | 342 kts | 262° |
| 2026-04-25 08:55 | 51.00620 | 8.59047 | 18614 ft | 341 kts | 262° |
| 2026-04-25 08:55 | 51.00214 | 8.55341 | 18142 ft | 340 kts | 262° |
| 2026-04-25 08:55 | 50.99806 | 8.51663 | 17660 ft | 338 kts | 262° |
| 2026-04-25 08:56 | 50.99394 | 8.47989 | 17180 ft | 336 kts | 262° |
| 2026-04-25 08:56 | 50.98983 | 8.44336 | 16726 ft | 334 kts | 262° |
| 2026-04-25 08:56 | 50.98580 | 8.40762 | 16298 ft | 332 kts | 262° |
| 2026-04-25 08:56 | 50.98174 | 8.37151 | 15871 ft | 330 kts | 262° |
| 2026-04-25 08:57 | 50.97770 | 8.33566 | 15452 ft | 328 kts | 262° |
| 2026-04-25 08:57 | 50.97396 | 8.30011 | 15053 ft | 326 kts | 265° |
| 2026-04-25 08:57 | 50.97320 | 8.26436 | 14648 ft | 322 kts | 274° |
| 2026-04-25 08:57 | 50.97561 | 8.22914 | 14244 ft | 320 kts | 278° |
| 2026-04-25 08:58 | 50.97851 | 8.19425 | 13853 ft | 318 kts | 278° |
| 2026-04-25 08:58 | 50.98129 | 8.15933 | 13402 ft | 317 kts | 278° |
| 2026-04-25 08:58 | 50.98398 | 8.12509 | 12984 ft | 315 kts | 278° |
| 2026-04-25 08:58 | 50.98670 | 8.09061 | 12547 ft | 313 kts | 278° |
| 2026-04-25 08:59 | 50.98939 | 8.05644 | 12101 ft | 311 kts | 278° |
| 2026-04-25 08:59 | 50.99208 | 8.02240 | 11659 ft | 310 kts | 278° |
| 2026-04-25 08:59 | 50.99386 | 7.99988 | 11363 ft | 309 kts | 278° |
| 2026-04-25 08:59 | 50.99742 | 7.95509 | 10808 ft | 307 kts | 278° |
| 2026-04-25 09:00 | 50.99921 | 7.93241 | 10531 ft | 306 kts | 278° |
| 2026-04-25 09:00 | 51.00177 | 7.89946 | 10223 ft | 304 kts | 278° |
| 2026-04-25 09:00 | 51.00430 | 7.86667 | 10175 ft | 291 kts | 278° |
| 2026-04-25 09:00 | 51.00667 | 7.83551 | 10108 ft | 279 kts | 278° |
| 2026-04-25 09:01 | 51.00898 | 7.80520 | 9806 ft | 275 kts | 278° |
| 2026-04-25 09:01 | 51.01130 | 7.77505 | 9407 ft | 274 kts | 278° |
| 2026-04-25 09:01 | 51.01362 | 7.74507 | 9005 ft | 273 kts | 278° |
| 2026-04-25 09:01 | 51.01591 | 7.71532 | 8613 ft | 271 kts | 278° |
| 2026-04-25 09:02 | 51.01819 | 7.68553 | 8215 ft | 270 kts | 278° |
| 2026-04-25 09:02 | 51.02044 | 7.65597 | 7830 ft | 269 kts | 278° |
| 2026-04-25 09:02 | 51.02266 | 7.62659 | 7432 ft | 267 kts | 278° |
| 2026-04-25 09:02 | 51.02481 | 7.59770 | 7036 ft | 266 kts | 278° |
| 2026-04-25 09:03 | 51.02700 | 7.56841 | 6642 ft | 265 kts | 278° |
| 2026-04-25 09:03 | 51.02918 | 7.53941 | 6200 ft | 264 kts | 278° |
| 2026-04-25 09:03 | 51.03138 | 7.51035 | 5767 ft | 264 kts | 278° |
| 2026-04-25 09:03 | 51.03166 | 7.48124 | 5350 ft | 264 kts | 263° |
| 2026-04-25 09:04 | 51.02645 | 7.45325 | 5028 ft | 264 kts | 245° |
| 2026-04-25 09:04 | 51.01625 | 7.42910 | 5000 ft | 269 kts | 229° |
| 2026-04-25 09:04 | 51.00175 | 7.41022 | 5003 ft | 272 kts | 211° |
| 2026-04-25 09:04 | 50.98417 | 7.39907 | 5005 ft | 274 kts | 193° |
| 2026-04-25 09:05 | 50.96517 | 7.39708 | 5006 ft | 276 kts | 174° |
| 2026-04-25 09:05 | 50.94660 | 7.40455 | 5004 ft | 276 kts | 156° |
| 2026-04-25 09:05 | 50.93034 | 7.42048 | 5006 ft | 276 kts | 142° |
| 2026-04-25 09:05 | 50.91500 | 7.43890 | 5006 ft | 276 kts | 142° |
| 2026-04-25 09:06 | 50.89961 | 7.45720 | 5002 ft | 276 kts | 143° |
| 2026-04-25 09:06 | 50.88415 | 7.47545 | 5004 ft | 276 kts | 143° |
| 2026-04-25 09:06 | 50.86886 | 7.49348 | 5001 ft | 277 kts | 143° |
| 2026-04-25 09:06 | 50.85340 | 7.51172 | 4878 ft | 274 kts | 143° |
| 2026-04-25 09:07 | 50.83809 | 7.52979 | 4429 ft | 274 kts | 143° |
| 2026-04-25 09:07 | 50.82283 | 7.54776 | 4116 ft | 268 kts | 143° |
| 2026-04-25 09:07 | 50.80843 | 7.56472 | 3989 ft | 255 kts | 143° |
| 2026-04-25 09:07 | 50.79448 | 7.58117 | 3864 ft | 244 kts | 143° |
| 2026-04-25 09:08 | 50.78096 | 7.59648 | 3710 ft | 235 kts | 151° |
| 2026-04-25 09:08 | 50.76542 | 7.60179 | 3425 ft | 228 kts | 190° |
| 2026-04-25 09:08 | 50.75154 | 7.59192 | 3124 ft | 221 kts | 227° |
| 2026-04-25 09:08 | 50.74397 | 7.57173 | 2987 ft | 215 kts | 261° |
| 2026-04-25 09:09 | 50.74377 | 7.54886 | 2992 ft | 203 kts | 276° |
| 2026-04-25 09:09 | 50.74420 | 7.52697 | 3079 ft | 195 kts | 272° |
| 2026-04-25 09:09 | 50.74353 | 7.50556 | 3336 ft | 195 kts | 268° |
| 2026-04-25 09:09 | 50.74169 | 7.48420 | 3474 ft | 197 kts | 262° |
| 2026-04-25 09:10 | 50.73863 | 7.46313 | 3501 ft | 198 kts | 257° |
| 2026-04-25 09:10 | 50.73438 | 7.44254 | 3506 ft | 197 kts | 252° |
| 2026-04-25 09:10 | 50.72908 | 7.42253 | 3505 ft | 198 kts | 249° |
| 2026-04-25 09:10 | 50.72369 | 7.40276 | 3504 ft | 198 kts | 250° |
| 2026-04-25 09:11 | 50.72175 | 7.36184 | 3505 ft | 190 kts | 298° |
| 2026-04-25 09:11 | 50.73000 | 7.34588 | 3511 ft | 189 kts | 319° |
| 2026-04-25 09:11 | 50.73983 | 7.33187 | 3392 ft | 190 kts | 319° |
| 2026-04-25 09:12 | 50.74961 | 7.31789 | 3184 ft | 189 kts | 319° |
| 2026-04-25 09:12 | 50.75934 | 7.30392 | 2932 ft | 189 kts | 319° |
| 2026-04-25 09:12 | 50.76904 | 7.28997 | 2680 ft | 187 kts | 319° |
| 2026-04-25 09:12 | 50.77836 | 7.27656 | 2455 ft | 175 kts | 319° |
| 2026-04-25 09:13 | 50.78715 | 7.26391 | 2200 ft | 166 kts | 318° |
| 2026-04-25 09:13 | 50.79543 | 7.25197 | 1969 ft | 155 kts | 318° |
| 2026-04-25 09:13 | 50.80307 | 7.24096 | 1761 ft | 146 kts | 317° |
| 2026-04-25 09:13 | 50.81044 | 7.23033 | 1571 ft | 142 kts | 317° |
| 2026-04-25 09:14 | 50.81775 | 7.21978 | 1366 ft | 142 kts | 317° |
| 2026-04-25 09:14 | 50.82511 | 7.20916 | 1162 ft | 143 kts | 317° |
| 2026-04-25 09:14 | 50.83243 | 7.19860 | 959 ft | 142 kts | 317° |
| 2026-04-25 09:14 | 50.83977 | 7.18799 | 759 ft | 143 kts | 318° |
| 2026-04-25 09:15 | 50.84708 | 7.17740 | 582 ft | 143 kts | 318° |
| 2026-04-25 09:15 | 50.85444 | 7.16683 | 398 ft | 141 kts | 317° |
| 2026-04-25 09:15 | 50.86149 | 7.15660 | 287 ft | 129 kts | 317° |
| 2026-04-25 09:15 | 50.86710 | 7.14850 | 258 ft | 84 kts | 317° |
| 2026-04-25 09:16 | 50.87050 | 7.14352 | 257 ft | 51 kts | 317° |
| 2026-04-25 09:16 | 50.87222 | 7.14092 | 254 ft | 23 kts | 311° |
| 2026-04-25 09:16 | 50.87295 | 7.13896 | 251 ft | 18 kts | 285° |
| 2026-04-25 09:16 | 50.87326 | 7.13685 | 246 ft | 17 kts | 274° |
| 2026-04-25 09:17 | 50.87346 | 7.13480 | 237 ft | 9 kts | 285° |
| 2026-04-25 09:17 | 50.87375 | 7.13402 | 239 ft | 8 kts | 328° |
| 2026-04-25 09:17 | 50.87423 | 7.13351 | 235 ft | 8 kts | 321° |
| 2026-04-25 09:18 | 50.87495 | 7.13251 | 233 ft | 27 kts | 318° |
| 2026-04-25 09:18 | 50.87667 | 7.13001 | 231 ft | 32 kts | 317° |
| 2026-04-25 09:18 | 50.87788 | 7.12786 | 230 ft | 22 kts | 277° |
| 2026-04-25 09:18 | 50.87769 | 7.12647 | 230 ft | 5 kts | 259° |
| 2026-04-25 09:19 | 50.87764 | 7.12607 | 230 ft | 1 kts | 258° |
| 2026-04-25 09:19 | 50.87763 | 7.12600 | 230 ft | 4 kts | 255° |
| 2026-04-25 09:19 | 50.87749 | 7.12554 | 230 ft | 4 kts | 243° |
| 2026-04-25 09:19 | 50.87745 | 7.12514 | 231 ft | 3 kts | 271° |
| 2026-04-25 09:20 | 50.87750 | 7.12486 | 230 ft | 2 kts | 287° |
| 2026-04-25 09:20 | 50.87754 | 7.12467 | 230 ft | 1 kts | 289° |
| 2026-04-25 09:20 | 50.87758 | 7.12448 | 230 ft | 2 kts | 289° |
| 2026-04-25 09:20 | 50.87761 | 7.12433 | 232 ft | 1 kts | 288° |
| 2026-04-25 09:21 | 50.87764 | 7.12422 | 232 ft | 1 kts | 288° |
| 2026-04-25 09:21 | 50.87765 | 7.12416 | 232 ft | 0 kts | 288° |
| 2026-04-25 09:21 | 50.87767 | 7.12405 | 231 ft | 1 kts | 288° |
| 2026-04-25 09:21 | 50.87768 | 7.12402 | 231 ft | 0 kts | 288° |
| 2026-04-25 09:22 | 50.87768 | 7.12400 | 230 ft | 0 kts | 288° |